• Join FlightAware (Why Join?)
  • Login
  • US Flag 
Trick or treat! (Boo!!) 
11:27PM EDT


 

Airport Tracker/Info


-or-


 

Live Flight TrackerFlight Track Log ✈ SKW5619 ✈ 03-Jun-2013 ✈ KDEN - KHLN

Flight Track Log - Related Links

Times and Time Zones

All times are in EDT time to prevent confusion due to time zone crossing. See the SKW5619 flight status page for this flight to view local times or setup timezone preferences in your user account.

Time Position Orientation Groundspeed Altitude Reporting Facility
EDT Latitude Longitude Course Direction KTS MPH feet Rate Location/Type
09:44PM 40.2008 -104.9943 324° Northwest  Level Estimated
09:45PM 40.2855 -105.0751 324° Northwest  Level Estimated
09:46PM 40.3701 -105.1560 324° Northwest  Level Estimated
09:47PM 40.4546 -105.2372 324° Northwest  Level Estimated
09:48PM 40.5391 -105.3186 324° Northwest  Level Estimated
09:49PM 40.6235 -105.4002 324° Northwest  Level Estimated
09:50PM 40.7079 -105.4820 324° Northwest  Level Estimated
09:51PM 40.7922 -105.5640 324° Northwest  Level Estimated
09:52PM 40.8765 -105.6462 324° Northwest  Level Estimated
09:53PM 40.9607 -105.7287 324° Northwest  Level Estimated
09:54PM 41.0448 -105.8113 323° Northwest  Level Estimated
09:55PM 41.1289 -105.8942 323° Northwest  Level Estimated
09:56PM 41.2129 -105.9772 323° Northwest  Level Estimated
09:57PM 41.2969 -106.0605 323° Northwest  Level Estimated
09:58PM 41.3808 -106.1440 323° Northwest  Level Estimated
09:59PM 41.4646 -106.2277 323° Northwest  Level Estimated
10:00PM 41.5484 -106.3116 323° Northwest  Level Estimated
10:01PM 41.6321 -106.3958 323° Northwest  Level Estimated
10:02PM 41.7157 -106.4801 323° Northwest  Level Estimated
10:03PM 41.7993 -106.5647 323° Northwest  Level Estimated
10:04PM 41.8829 -106.6495 323° Northwest  Level Estimated
10:05PM 41.9663 -106.7345 323° Northwest  Level Estimated
10:06PM 42.0497 -106.8198 323° Northwest  Level Estimated
10:07PM 42.1331 -106.9053 323° Northwest  Level Estimated
10:08PM 42.2164 -106.9909 323° Northwest  Level Estimated
10:09PM 42.2996 -107.0769 323° Northwest  Level Estimated
10:10PM 42.3827 -107.1630 323° Northwest  Level Estimated
10:11PM 42.4658 -107.2494 323° Northwest  Level Estimated
10:12PM 42.5488 -107.3360 322° Northwest  Level Estimated
10:13PM 42.6318 -107.4228 322° Northwest  Level Estimated
10:14PM 42.7146 -107.5099 322° Northwest  Level Estimated
10:15PM 42.7975 -107.5972 322° Northwest  Level Estimated
10:16PM 42.8802 -107.6848 322° Northwest  Level Estimated
10:17PM 42.9629 -107.7725 322° Northwest  Level Estimated
10:18PM 43.0455 -107.8605 322° Northwest  Level Estimated
10:19PM 43.1281 -107.9488 322° Northwest  Level Estimated
10:20PM 43.2106 -108.0372 322° Northwest  Level Estimated
10:21PM 43.2930 -108.1260 322° Northwest  Level Estimated
10:22PM 43.3754 -108.2149 322° Northwest  Level Estimated
10:23PM 43.4576 -108.3041 322° Northwest  Level Estimated
10:24PM 43.5398 -108.3936 322° Northwest  Level Estimated
10:25PM 43.6220 -108.4833 322° Northwest  Level Estimated
10:26PM 43.7040 -108.5732 322° Northwest  Level Estimated
10:27PM 43.7860 -108.6634 322° Northwest  Level Estimated
10:28PM 43.8680 -108.7538 322° Northwest  Level Estimated
10:29PM 43.9498 -108.8445 321° Northwest  Level Estimated
10:30PM 44.0316 -108.9354 321° Northwest  Level Estimated
10:31PM 44.1133 -109.0266 321° Northwest  Level Estimated
10:32PM 44.1950 -109.1180 321° Northwest  Level Estimated
10:33PM 44.2765 -109.2097 321° Northwest  Level Estimated
10:34PM 44.3580 -109.3017 321° Northwest  Level Estimated
10:35PM 44.4394 -109.3939 321° Northwest  Level Estimated
10:36PM 44.5208 -109.4863 321° Northwest  Level Estimated
10:37PM 44.6021 -109.5790 321° Northwest  Level Estimated
10:38PM 44.6833 -109.6720 321° Northwest  Level Estimated
10:39PM 44.7644 -109.7652 321° Northwest  Level Estimated
10:40PM 44.8454 -109.8587 321° Northwest  Level Estimated
10:41PM 44.9264 -109.9525 321° Northwest  Level Estimated
10:42PM 45.0073 -110.0465 321° Northwest  Level Estimated
10:43PM 45.0881 -110.1408 321° Northwest  Level Estimated
10:44PM 45.1688 -110.2354 320° Northwest  Level Estimated
10:45PM 45.2495 -110.3302 320° Northwest  Level Estimated
10:46PM 45.3301 -110.4253 320° Northwest  Level Estimated
10:47PM 45.4105 -110.5207 320° Northwest  Level Estimated
10:48PM 45.4910 -110.6163 320° Northwest  Level Estimated
10:49PM 45.5713 -110.7122 320° Northwest  Level Estimated
10:50PM 45.6516 -110.8084 320° Northwest  Level Estimated
10:51PM 45.7318 -110.9048 320° Northwest  Level Estimated
10:52PM 45.8118 -111.0016 320° Northwest  Level Estimated
10:53PM 45.8918 -111.0986 320° Northwest  Level Estimated
10:54PM 45.9718 -111.1959 320° Northwest  Level Estimated
10:55PM 46.0516 -111.2935 320° Northwest  Level Estimated
10:56PM 46.1314 -111.3913 320° Northwest  Level Estimated
10:57PM 46.2111 -111.4895 320° Northwest  Level Estimated
10:58PM 46.2907 -111.5879 320° Northwest  Level Estimated
10:59PM 46.3702 -111.6866 319° Northwest  Level Estimated
11:00PM 46.4496 -111.7856 319° Northwest  Level Estimated
11:01PM 46.5289 -111.8849 319° Northwest  Level Estimated
11:02PM 46.6068 -111.9827 319° Northwest  Level Estimated
11:03PM 46.6068 -111.9827 180° South  Level Estimated
11:04PM 46.6068 -111.9827 180° South  Level Estimated
11:05PM 46.6068 -111.9827 180° South  Level Estimated
11:06PM 46.6068 -111.9827 180° South  Level Estimated
11:07PM 46.6068 -111.9827 180° South  Level Estimated
11:08PM 46.6068 -111.9827 180° South  Level Estimated
11:09PM 46.6068 -111.9827 180° South  Level Estimated
11:10PM 46.6068 -111.9827 180° South  Level Estimated
11:11PM 46.6068 -111.9827 180° South  Level Estimated